Rennes, France

8:14 PM CET on March 23, 2017 (GMT +0100)
Saint Jacques | | Change Station

Elev 121 ft 48.07 °N, 1.73 °W | Updated 14 minutes ago

Rain
Rain
45 °F
Feels Like 40 °F
N
9
Wind Variable Wind from South

Today
High -- | Low -- °F
--% Chance of Precip.
Yesterday
High -- | Low -- °F
Precip. -- in
Pressure 29.89 in
Visibility 6.2 miles
Clouds Few 900 ft
Scattered Clouds 1800 ft
Mostly Cloudy 2700 ft
Windchill 40 °F
Dew Point 41 °F
Humidity 87%
Rainfall 0.00 in
Snow Depth Not available.
7:03 AM 7:24 PM
Waning Crescent, 21% visible
METAR LFRN 231900Z AUTO 18008KT 9999 RA FEW009/// SCT018/// BKN027/// ///CB 07/05 Q1012 TEMPO 4000 SHRA
Pressure 29.89 in
Visibility 6.2 miles
Clouds Few 900 ft
Scattered Clouds 1800 ft
Mostly Cloudy 2700 ft
Windchill 40 °F
Dew Point 41 °F
Humidity 87%
Rainfall 0.00 in
Snow Depth Not available.
7:03 AM 7:24 PM
Waning Crescent, 21% visible
METAR LFRN 231900Z AUTO 18008KT 9999 RA FEW009/// SCT018/// BKN027/// ///CB 07/05 Q1012 TEMPO 4000 SHRA

Get Severe Weather Alerts

Thanks for signing up!

Be on the lookout for a verification email in your inbox.

You'll start receiving the daily forecast at 8 AM.

×

10-Day Weather Forecast

×

Almanac

Astronomy

Mar. 23, 2017 Rise Set
Actual Time
Civil Twilight
Nautical Twilight
Astronomical Twilight
Moon
Length of Visible Light
Length of Day
Tomorrow will be .
, % of the Moon is Illuminated

Today's Extremes

Country Highs Country Lows

Community

WunderPhotos

Upload Photos

1,962,540 photos uploaded!

WunderBlog® & News

Nearby

Air Quality

  Air Quality AQ Index Pollutant
Not available.

Snow Depth

Station Depth Elevation

Earthquake Activity

City Distance Mag. Time & Date
Minimum magnitude displayed is 2.5.

Earthquake Activity

City Distance Mag. Time & Date
Minimum magnitude displayed is 2.5.

Coastal Water Temperatures

Place Temperature

Stations

Nearby Weather Stations

Station Location Temp. Windchill Dew Point Humidity Wind Precip. Elev Updated Type